Time;durP1;ratioP1;P1;durP2;ratioP2;P2;SDS_P1;SDS_P2;PMS_P1;PMS_P2;Temp;Humidity;BMP_temperature;BMP_pressure;BME280_temperature;BME280_humidity;BME280_pressure;Samples;Min_cycle;Max_cycle;Signal;HPM_P1;HPM_P2
2023/09/24 00:02:07;;;;;;;16.75;5.47;;;;;;;;;;5072721;28;20065;-69
2023/09/24 00:04:33;;;;;;;18.50;5.97;;;;;;;;;;5072841;28;20123;-70
2023/09/24 00:06:59;;;;;;;23.08;6.40;;;;;;;;;;5071301;28;20021;-70
2023/09/24 00:09:25;;;;;;;13.32;5.72;;;;;;;;;;5072487;28;20064;-70
2023/09/24 00:11:51;;;;;;;24.05;6.47;;;;;;;;;;5068440;28;20052;-70
2023/09/24 00:14:16;;;;;;;23.13;7.43;;;;;;;;;;5070733;28;20063;-69
2023/09/24 00:16:42;;;;;;;23.60;7.35;;;;;;;;;;5057765;28;20024;-69
2023/09/24 00:19:08;;;;;;;20.13;7.90;;;;;;;;;;5071822;28;20109;-71
2023/09/24 00:21:33;;;;;;;26.52;8.23;;;;;;;;;;5071885;28;20040;-70
2023/09/24 00:23:59;;;;;;;20.17;8.00;;;;;;;;;;5071887;28;20075;-69
2023/09/24 00:26:25;;;;;;;21.83;8.77;;;;;;;;;;5071793;28;20070;-69
2023/09/24 00:28:51;;;;;;;16.35;7.82;;;;;;;;;;5072095;28;20042;-69
2023/09/24 00:31:17;;;;;;;28.27;9.63;;;;;;;;;;5072223;28;20029;-70
2023/09/24 00:33:43;;;;;;;24.10;9.32;;;;;;;;;;5070640;28;20462;-70
2023/09/24 00:36:08;;;;;;;21.88;8.73;;;;;;;;;;5070622;28;20025;-70
2023/09/24 00:38:35;;;;;;;20.05;8.35;;;;;;;;;;5068849;28;20098;-70
2023/09/24 00:41:01;;;;;;;23.65;9.02;;;;;;;;;;5070772;28;20062;-70
2023/09/24 00:43:32;;;;;;;34.95;9.35;;;;;;;;;;5070218;28;20119;-70
2023/09/24 00:46:02;;;;;;;24.38;8.18;;;;;;;;;;5090353;28;20054;-70
2023/09/24 00:48:30;;;;;;;29.83;8.23;;;;;;;;;;5073676;28;20071;-70
2023/09/24 00:51:02;;;;;;;16.75;8.35;;;;;;;;;;5089509;28;20357;-70
2023/09/24 00:53:32;;;;;;;20.02;7.78;;;;;;;;;;5090230;28;20051;-70
2023/09/24 00:55:58;;;;;;;18.73;7.13;;;;;;;;;;5091768;28;20038;-70
2023/09/24 00:58:28;;;;;;;29.52;8.05;;;;;;;;;;5091265;28;20031;-70
2023/09/24 01:00:55;;;;;;;35.67;7.13;;;;;;;;;;5106886;28;20485;-69
2023/09/24 01:03:24;;;;;;;20.83;6.85;;;;;;;;;;5072059;28;20301;-70
2023/09/24 01:05:54;;;;;;;24.33;9.02;;;;;;;;;;5085683;28;20492;-70
2023/09/24 01:08:22;;;;;;;21.98;8.50;;;;;;;;;;5071450;28;20028;-70
2023/09/24 01:10:48;;;;;;;25.50;7.65;;;;;;;;;;5070288;28;20028;-70
2023/09/24 01:13:15;;;;;;;26.85;8.48;;;;;;;;;;5070117;28;20090;-69
2023/09/24 01:15:45;;;;;;;27.92;8.60;;;;;;;;;;5069853;28;20021;-70
2023/09/24 01:18:11;;;;;;;20.08;8.38;;;;;;;;;;5070343;28;20059;-70
2023/09/24 01:20:41;;;;;;;30.42;8.95;;;;;;;;;;5086990;28;20578;-70
2023/09/24 01:23:11;;;;;;;22.23;8.25;;;;;;;;;;5071034;28;20037;-70
2023/09/24 01:25:37;;;;;;;18.05;8.10;;;;;;;;;;5086570;28;20482;-70
2023/09/24 01:28:05;;;;;;;22.77;7.93;;;;;;;;;;5068426;28;20067;-70
2023/09/24 01:30:31;;;;;;;21.75;8.13;;;;;;;;;;5090214;28;20028;-70
2023/09/24 01:32:58;;;;;;;31.63;8.43;;;;;;;;;;5088819;28;20431;-70
2023/09/24 01:35:28;;;;;;;26.88;8.60;;;;;;;;;;5089418;28;20545;-69
2023/09/24 01:38:04;;;;;;;27.67;9.43;;;;;;;;;;5089638;28;20086;-70
2023/09/24 01:40:32;;;;;;;24.17;8.68;;;;;;;;;;5089243;28;20047;-70
2023/09/24 01:42:59;;;;;;;30.27;8.80;;;;;;;;;;5090037;28;20036;-70
2023/09/24 01:45:26;;;;;;;23.88;8.02;;;;;;;;;;5080071;28;20037;-70
2023/09/24 01:47:52;;;;;;;18.67;7.88;;;;;;;;;;5050103;28;20479;-70
2023/09/24 01:50:18;;;;;;;21.88;8.32;;;;;;;;;;5048367;28;20040;-70
2023/09/24 01:52:48;;;;;;;27.52;8.30;;;;;;;;;;5065908;28;20032;-70
2023/09/24 01:55:15;;;;;;;29.75;8.82;;;;;;;;;;5048601;28;20216;-70
2023/09/24 01:57:42;;;;;;;26.88;8.73;;;;;;;;;;5049614;28;20111;-70
2023/09/24 02:00:13;;;;;;;18.83;8.55;;;;;;;;;;5049110;28;20410;-70
2023/09/24 02:02:39;;;;;;;21.42;8.85;;;;;;;;;;5051038;28;20056;-70
2023/09/24 02:05:10;;;;;;;23.63;9.13;;;;;;;;;;5049779;28;20075;-70
2023/09/24 02:07:38;;;;;;;21.77;8.55;;;;;;;;;;5050908;28;20132;-70
2023/09/24 02:10:05;;;;;;;24.85;9.38;;;;;;;;;;5066930;28;20078;-69
2023/09/24 02:12:36;;;;;;;23.60;9.18;;;;;;;;;;5054491;28;20312;-71
2023/09/24 02:15:10;;;;;;;23.20;8.65;;;;;;;;;;5053303;28;20025;-69
2023/09/24 02:17:39;;;;;;;28.42;8.93;;;;;;;;;;5053504;28;20033;-70
2023/09/24 02:22:52;;;;;;;26.20;9.60;;;;;;;;;;5053665;28;20032;-70
2023/09/24 02:25:21;;;;;;;27.70;8.45;;;;;;;;;;5055151;28;20036;-69
2023/09/24 02:27:48;;;;;;;20.13;7.95;;;;;;;;;;5054937;28;20040;-69
2023/09/24 02:30:15;;;;;;;19.55;7.65;;;;;;;;;;5055249;28;20085;-70
2023/09/24 02:32:43;;;;;;;20.25;7.55;;;;;;;;;;5053194;28;20448;-70
2023/09/24 02:35:13;;;;;;;17.85;7.72;;;;;;;;;;5053177;28;20025;-71
2023/09/24 02:37:40;;;;;;;25.08;8.50;;;;;;;;;;5053179;28;20037;-71
2023/09/24 02:40:27;;;;;;;25.98;8.57;;;;;;;;;;5036641;28;20326;-71
2023/09/24 02:43:01;;;;;;;17.45;8.85;;;;;;;;;;5053064;28;20064;-69
2023/09/24 02:45:29;;;;;;;20.90;8.43;;;;;;;;;;5052908;28;20452;-72
2023/09/24 02:47:56;;;;;;;24.33;9.60;;;;;;;;;;5052837;28;20063;-70
2023/09/24 02:50:25;;;;;;;19.35;9.95;;;;;;;;;;5052964;28;20060;-71
2023/09/24 02:52:54;;;;;;;21.00;10.07;;;;;;;;;;5052920;28;20036;-70
2023/09/24 02:55:22;;;;;;;25.17;10.68;;;;;;;;;;5067791;28;20027;-71
2023/09/24 02:57:50;;;;;;;21.38;9.95;;;;;;;;;;5074016;28;20028;-70
2023/09/24 03:00:18;;;;;;;26.70;11.57;;;;;;;;;;5071559;28;20498;-71
2023/09/24 03:02:45;;;;;;;22.13;10.02;;;;;;;;;;5071066;28;20546;-72
2023/09/24 03:05:19;;;;;;;20.70;11.43;;;;;;;;;;5071690;28;20398;-71
2023/09/24 03:07:50;;;;;;;20.08;10.77;;;;;;;;;;5066220;28;20044;-69
2023/09/24 03:10:16;;;;;;;21.92;10.98;;;;;;;;;;5068450;28;20044;-70
2023/09/24 03:12:43;;;;;;;24.58;10.93;;;;;;;;;;5070521;28;20049;-72
2023/09/24 03:15:12;;;;;;;19.73;11.35;;;;;;;;;;5069136;28;20112;-71
2023/09/24 03:17:48;;;;;;;28.55;11.65;;;;;;;;;;5073709;28;20082;-70
2023/09/24 03:20:16;;;;;;;19.17;10.15;;;;;;;;;;5072664;28;20107;-70
2023/09/24 03:22:46;;;;;;;19.90;11.57;;;;;;;;;;5071868;28;20024;-71
2023/09/24 03:25:13;;;;;;;27.98;11.57;;;;;;;;;;5071557;28;20036;-72
2023/09/24 03:27:39;;;;;;;19.05;10.27;;;;;;;;;;5070135;28;20024;-71
2023/09/24 03:30:10;;;;;;;22.70;11.82;;;;;;;;;;5071295;28;20036;-71
2023/09/24 03:32:37;;;;;;;33.15;12.40;;;;;;;;;;5070111;28;20040;-70
2023/09/24 03:35:09;;;;;;;19.60;12.48;;;;;;;;;;5069568;28;20028;-71
2023/09/24 03:37:40;;;;;;;24.97;12.43;;;;;;;;;;5069478;28;20051;-71
2023/09/24 03:40:12;;;;;;;;;;;;;;;;;;5070374;28;20036;-70
2023/09/24 03:42:38;;;;;;;22.33;11.13;;;;;;;;;;5071897;28;20008;-70
2023/09/24 03:45:09;;;;;;;19.90;10.68;;;;;;;;;;5070700;28;20016;-70
2023/09/24 03:47:41;;;;;;;20.05;11.27;;;;;;;;;;5072518;28;20417;-70
2023/09/24 03:50:16;;;;;;;24.57;13.90;;;;;;;;;;5051008;28;20086;-71
2023/09/24 03:52:52;;;;;;;20.00;10.60;;;;;;;;;;5052779;28;20036;-70
2023/09/24 03:55:21;;;;;;;24.27;12.07;;;;;;;;;;5068828;28;20032;-71
2023/09/24 03:57:48;;;;;;;30.30;14.25;;;;;;;;;;5071204;28;20016;-71
2023/09/24 04:00:21;;;;;;;23.17;11.25;;;;;;;;;;5070602;28;20119;-70
2023/09/24 04:02:48;;;;;;;21.33;10.65;;;;;;;;;;5071695;28;20079;-70
2023/09/24 04:05:18;;;;;;;27.48;11.00;;;;;;;;;;5070181;28;20037;-70
2023/09/24 04:07:52;;;;;;;28.38;10.88;;;;;;;;;;5071892;28;20044;-69
2023/09/24 04:10:22;;;;;;;26.58;11.80;;;;;;;;;;5070335;28;20150;-69
2023/09/24 04:12:51;;;;;;;29.40;12.02;;;;;;;;;;5071510;28;20111;-70
2023/09/24 04:15:19;;;;;;;33.78;12.50;;;;;;;;;;5071709;28;20157;-70
2023/09/24 04:17:49;;;;;;;25.45;10.77;;;;;;;;;;5072102;28;20347;-70
2023/09/24 04:20:19;;;;;;;28.48;11.35;;;;;;;;;;5071287;28;20032;-70
2023/09/24 04:22:47;;;;;;;29.67;12.90;;;;;;;;;;5064245;28;20196;-70
2023/09/24 04:25:14;;;;;;;32.25;14.45;;;;;;;;;;5086968;28;20123;-69
2023/09/24 04:27:43;;;;;;;27.35;12.68;;;;;;;;;;5071461;28;20056;-69
2023/09/24 04:30:15;;;;;;;29.90;11.90;;;;;;;;;;5071624;28;20111;-70
2023/09/24 04:32:41;;;;;;;28.57;13.13;;;;;;;;;;5071563;28;20040;-70
2023/09/24 04:35:09;;;;;;;33.88;14.40;;;;;;;;;;5070675;28;20127;-70
2023/09/24 04:37:35;;;;;;;49.92;14.68;;;;;;;;;;5071366;28;20067;-70
2023/09/24 04:40:02;;;;;;;31.63;12.93;;;;;;;;;;5068321;28;20441;-70
2023/09/24 04:42:27;;;;;;;31.70;14.00;;;;;;;;;;5070725;28;20119;-71
2023/09/24 04:44:53;;;;;;;28.27;13.02;;;;;;;;;;5070996;28;20024;-70
2023/09/24 04:47:19;;;;;;;36.30;13.02;;;;;;;;;;5065754;28;20032;-70
2023/09/24 04:49:44;;;;;;;27.00;12.82;;;;;;;;;;5065438;28;20033;-69
2023/09/24 04:52:10;;;;;;;25.58;10.82;;;;;;;;;;5071176;28;20032;-70
2023/09/24 04:54:36;;;;;;;31.75;11.95;;;;;;;;;;5070083;28;20428;-70
2023/09/24 04:57:04;;;;;;;23.67;11.18;;;;;;;;;;5071147;28;20033;-69
2023/09/24 04:59:29;;;;;;;28.85;11.38;;;;;;;;;;5071211;28;20024;-69
2023/09/24 05:01:55;;;;;;;32.35;11.07;;;;;;;;;;5071094;28;20116;-70
2023/09/24 05:04:21;;;;;;;36.40;11.38;;;;;;;;;;5071708;28;20035;-70
2023/09/24 05:06:47;;;;;;;28.75;9.07;;;;;;;;;;5070295;28;20032;-69
2023/09/24 05:09:13;;;;;;;24.38;7.80;;;;;;;;;;5066177;28;20398;-69
2023/09/24 05:11:39;;;;;;;29.80;7.70;;;;;;;;;;5065498;28;20081;-69
2023/09/24 05:14:05;;;;;;;26.23;7.93;;;;;;;;;;5067079;28;20116;-69
2023/09/24 05:16:31;;;;;;;30.25;8.00;;;;;;;;;;5071602;28;20028;-70
2023/09/24 05:19:01;;;;;;;21.63;5.85;;;;;;;;;;5071375;28;20025;-69
2023/09/24 05:21:28;;;;;;;22.00;6.03;;;;;;;;;;5063390;28;20036;-70
2023/09/24 05:23:54;;;;;;;22.15;6.10;;;;;;;;;;5071366;28;20532;-70
2023/09/24 05:26:20;;;;;;;25.02;6.22;;;;;;;;;;5071238;28;20025;-70
2023/09/24 05:28:46;;;;;;;30.45;7.90;;;;;;;;;;5071520;28;20377;-70
2023/09/24 05:31:12;;;;;;;24.00;5.43;;;;;;;;;;5070914;28;20398;-70
2023/09/24 05:33:41;;;;;;;21.42;5.40;;;;;;;;;;5066584;28;20103;-70
2023/09/24 05:36:08;;;;;;;18.73;4.93;;;;;;;;;;5070046;28;20120;-70
2023/09/24 05:38:34;;;;;;;19.05;5.43;;;;;;;;;;5065017;28;20544;-70
2023/09/24 05:40:59;;;;;;;25.65;5.85;;;;;;;;;;5070895;28;20036;-70
2023/09/24 05:43:25;;;;;;;25.95;5.72;;;;;;;;;;5062615;28;20070;-70
2023/09/24 05:45:51;;;;;;;23.23;6.32;;;;;;;;;;5073205;28;20040;-70
2023/09/24 05:48:18;;;;;;;16.80;5.20;;;;;;;;;;5075131;28;20037;-70
2023/09/24 05:50:45;;;;;;;24.67;6.25;;;;;;;;;;5075161;28;20036;-70
2023/09/24 05:53:12;;;;;;;17.98;5.50;;;;;;;;;;5071725;28;20103;-69
2023/09/24 05:55:38;;;;;;;16.95;5.50;;;;;;;;;;5067346;28;20062;-70
2023/09/24 05:58:07;;;;;;;23.10;5.88;;;;;;;;;;5075049;28;20033;-70
2023/09/24 06:00:36;;;;;;;23.40;4.97;;;;;;;;;;5074405;28;20028;-70
2023/09/24 06:03:02;;;;;;;24.67;5.43;;;;;;;;;;5074724;28;20111;-70
2023/09/24 06:05:31;;;;;;;23.55;5.30;;;;;;;;;;5066468;28;20029;-69
2023/09/24 06:07:56;;;;;;;20.42;5.82;;;;;;;;;;5073293;28;20029;-68
2023/09/24 06:10:22;;;;;;;14.90;4.60;;;;;;;;;;5074619;28;20101;-69
2023/09/24 06:12:49;;;;;;;22.30;5.05;;;;;;;;;;5074244;28;20012;-69
2023/09/24 06:15:17;;;;;;;38.75;6.30;;;;;;;;;;5074203;28;20036;-70
2023/09/24 06:17:43;;;;;;;29.58;5.75;;;;;;;;;;5073156;28;20020;-69
2023/09/24 06:20:10;;;;;;;23.60;5.50;;;;;;;;;;5074344;28;20046;-70
2023/09/24 06:22:36;;;;;;;22.65;5.43;;;;;;;;;;5070666;28;20031;-69
2023/09/24 06:25:03;;;;;;;23.38;5.45;;;;;;;;;;5066725;28;20041;-70
2023/09/24 06:27:29;;;;;;;22.48;5.00;;;;;;;;;;5074483;28;20052;-70
2023/09/24 06:29:55;;;;;;;32.30;5.43;;;;;;;;;;5074262;28;20036;-70
2023/09/24 06:32:21;;;;;;;22.33;5.30;;;;;;;;;;5073174;28;20031;-71
2023/09/24 06:34:47;;;;;;;22.05;5.28;;;;;;;;;;5073223;28;20029;-70
2023/09/24 06:37:15;;;;;;;30.08;5.85;;;;;;;;;;5062324;28;20056;-70
2023/09/24 06:39:42;;;;;;;24.00;6.30;;;;;;;;;;5073503;28;20082;-70
2023/09/24 06:42:08;;;;;;;24.45;5.15;;;;;;;;;;5073651;28;20024;-70
2023/09/24 06:44:34;;;;;;;26.27;5.93;;;;;;;;;;5070923;28;20518;-70
2023/09/24 06:46:59;;;;;;;23.77;5.57;;;;;;;;;;5067829;28;20028;-70
2023/09/24 06:49:25;;;;;;;26.77;5.88;;;;;;;;;;5064805;28;20047;-70
2023/09/24 06:51:53;;;;;;;25.65;6.07;;;;;;;;;;5073450;28;20462;-70
2023/09/24 06:54:19;;;;;;;29.88;5.85;;;;;;;;;;5073668;28;20420;-70
2023/09/24 06:56:45;;;;;;;21.25;5.82;;;;;;;;;;5071870;28;20112;-70
2023/09/24 06:59:11;;;;;;;22.05;6.28;;;;;;;;;;5074043;28;20080;-70
2023/09/24 07:01:38;;;;;;;19.40;5.35;;;;;;;;;;5071956;28;20048;-70
2023/09/24 07:04:08;;;;;;;20.42;6.45;;;;;;;;;;5073121;28;20299;-71
2023/09/24 07:06:33;;;;;;;22.33;6.18;;;;;;;;;;5065584;28;20029;-69
2023/09/24 07:09:00;;;;;;;18.08;5.85;;;;;;;;;;5073406;28;20025;-69
2023/09/24 07:11:34;;;;;;;24.25;6.38;;;;;;;;;;5072915;28;20033;-70
2023/09/24 07:14:01;;;;;;;18.35;5.40;;;;;;;;;;5073303;28;20111;-70
2023/09/24 07:16:27;;;;;;;16.58;6.25;;;;;;;;;;5078227;28;20388;-69
2023/09/24 07:18:55;;;;;;;24.25;7.28;;;;;;;;;;5072918;28;20044;-70
2023/09/24 07:21:24;;;;;;;20.38;6.03;;;;;;;;;;5072834;28;20056;-71
2023/09/24 07:23:51;;;;;;;18.20;6.07;;;;;;;;;;5072974;28;20563;-71
2023/09/24 07:26:17;;;;;;;21.98;6.28;;;;;;;;;;5073095;28;20067;-71
2023/09/24 07:28:44;;;;;;;15.45;6.10;;;;;;;;;;5072731;28;20063;-72
2023/09/24 07:31:21;;;;;;;19.70;6.50;;;;;;;;;;5088018;28;20089;-73
2023/09/24 07:33:52;;;;;;;13.00;6.25;;;;;;;;;;5072598;28;20086;-70
2023/09/24 07:36:20;;;;;;;19.42;5.90;;;;;;;;;;5072263;28;20446;-70
2023/09/24 07:38:46;;;;;;;21.33;6.97;;;;;;;;;;5071276;28;20501;-71
2023/09/24 07:41:12;;;;;;;18.17;7.05;;;;;;;;;;5072464;28;20032;-70
2023/09/24 07:43:41;;;;;;;14.02;6.82;;;;;;;;;;5072607;28;20033;-70
2023/09/24 07:46:12;;;;;;;17.25;7.28;;;;;;;;;;5072661;28;20047;-71
2023/09/24 07:48:39;;;;;;;11.90;6.35;;;;;;;;;;5072459;28;20448;-69
2023/09/24 07:51:05;;;;;;;17.67;6.90;;;;;;;;;;5072261;28;20459;-70
2023/09/24 07:53:31;;;;;;;14.57;7.32;;;;;;;;;;5072099;28;20040;-71
2023/09/24 07:56:08;;;;;;;17.50;6.25;;;;;;;;;;5072412;28;20021;-70
2023/09/24 07:58:36;;;;;;;13.00;5.55;;;;;;;;;;5072425;28;20047;-70
2023/09/24 08:01:04;;;;;;;16.02;6.32;;;;;;;;;;5071949;28;20039;-70
2023/09/24 08:03:31;;;;;;;15.65;6.65;;;;;;;;;;5072562;28;20028;-70
2023/09/24 08:05:57;;;;;;;19.80;6.97;;;;;;;;;;5072148;28;20064;-69
2023/09/24 08:08:24;;;;;;;11.38;6.25;;;;;;;;;;5072213;28;20025;-70
2023/09/24 08:10:52;;;;;;;20.48;6.70;;;;;;;;;;5070831;28;20074;-69
2023/09/24 08:13:19;;;;;;;19.23;6.20;;;;;;;;;;5072062;28;20406;-71
2023/09/24 08:15:46;;;;;;;13.68;6.03;;;;;;;;;;5072344;28;20570;-71
2023/09/24 08:18:12;;;;;;;14.52;5.68;;;;;;;;;;5072111;28;20032;-70
2023/09/24 08:20:40;;;;;;;15.05;5.88;;;;;;;;;;5070501;28;20389;-72
2023/09/24 08:23:06;;;;;;;14.88;6.03;;;;;;;;;;5075410;28;20091;-70
2023/09/24 08:25:32;;;;;;;13.60;5.70;;;;;;;;;;5071619;28;20021;-71
2023/09/24 08:27:58;;;;;;;12.95;6.13;;;;;;;;;;5072368;28;20409;-70
2023/09/24 08:30:26;;;;;;;11.05;5.55;;;;;;;;;;5072017;28;20044;-71
2023/09/24 08:32:52;;;;;;;15.90;5.65;;;;;;;;;;5070936;28;20402;-71
2023/09/24 08:35:18;;;;;;;14.32;6.10;;;;;;;;;;5071612;28;20025;-69
2023/09/24 08:37:44;;;;;;;14.68;6.70;;;;;;;;;;5070966;28;20089;-70
2023/09/24 08:40:11;;;;;;;17.23;7.28;;;;;;;;;;5058358;28;20042;-70
2023/09/24 08:42:38;;;;;;;17.95;6.63;;;;;;;;;;5064762;28;20035;-70
2023/09/24 08:45:14;;;;;;;15.00;5.80;;;;;;;;;;5063593;28;20104;-70
2023/09/24 08:47:42;;;;;;;16.25;5.65;;;;;;;;;;5064989;28;20398;-70
2023/09/24 08:50:08;;;;;;;12.65;5.75;;;;;;;;;;5063326;28;20029;-70
2023/09/24 08:52:37;;;;;;;19.05;6.43;;;;;;;;;;5064571;28;20382;-71
2023/09/24 08:55:05;;;;;;;22.60;6.07;;;;;;;;;;5062524;28;20025;-71
2023/09/24 08:57:33;;;;;;;15.98;6.03;;;;;;;;;;5059704;28;20025;-70
2023/09/24 08:59:59;;;;;;;14.05;5.88;;;;;;;;;;5061502;28;20024;-71
2023/09/24 09:02:25;;;;;;;21.58;6.97;;;;;;;;;;5060838;28;20044;-72
2023/09/24 09:04:51;;;;;;;16.92;6.60;;;;;;;;;;5059948;28;20101;-70
2023/09/24 09:07:17;;;;;;;18.25;6.70;;;;;;;;;;5061632;28;20034;-69
2023/09/24 09:09:59;;;;;;;21.10;6.53;;;;;;;;;;5059920;28;20444;-70
2023/09/24 09:12:26;;;;;;;21.83;6.10;;;;;;;;;;5060526;28;20397;-70
2023/09/24 09:14:52;;;;;;;23.42;6.07;;;;;;;;;;5060561;28;20028;-70
2023/09/24 09:17:18;;;;;;;22.45;6.70;;;;;;;;;;5055537;28;20159;-70
2023/09/24 09:19:52;;;;;;;17.08;5.78;;;;;;;;;;5059074;28;20506;-69
2023/09/24 09:22:26;;;;;;;15.05;6.00;;;;;;;;;;5061877;28;20060;-70
2023/09/24 09:25:06;;;;;;;20.75;6.95;;;;;;;;;;5062214;28;20104;-71
2023/09/24 09:27:34;;;;;;;14.68;6.28;;;;;;;;;;5062898;28;20028;-69
2023/09/24 09:30:09;;;;;;;14.15;6.13;;;;;;;;;;5061291;28;20028;-70
2023/09/24 09:32:37;;;;;;;15.25;6.18;;;;;;;;;;5061801;28;20032;-70
2023/09/24 09:35:03;;;;;;;23.10;6.47;;;;;;;;;;5060518;28;20045;-70
2023/09/24 09:37:29;;;;;;;19.60;6.00;;;;;;;;;;5057243;28;20041;-70
2023/09/24 09:39:55;;;;;;;25.67;6.32;;;;;;;;;;5049974;28;20080;-70
2023/09/24 09:42:24;;;;;;;14.50;6.20;;;;;;;;;;5050845;28;20037;-70
2023/09/24 09:44:51;;;;;;;17.30;5.03;;;;;;;;;;5050389;28;20033;-70
2023/09/24 09:47:18;;;;;;;15.10;5.07;;;;;;;;;;5066100;28;20043;-70
2023/09/24 09:49:53;;;;;;;15.25;5.88;;;;;;;;;;5054994;28;20071;-70
2023/09/24 09:52:21;;;;;;;19.75;6.18;;;;;;;;;;5059102;28;20032;-70
2023/09/24 09:54:50;;;;;;;15.27;6.32;;;;;;;;;;5061194;28;20024;-70
2023/09/24 09:57:16;;;;;;;17.52;6.75;;;;;;;;;;5060465;28;20029;-70
2023/09/24 09:59:43;;;;;;;16.80;5.97;;;;;;;;;;5058817;28;20021;-68
2023/09/24 10:02:10;;;;;;;18.10;5.85;;;;;;;;;;5060409;28;20086;-69
2023/09/24 10:04:36;;;;;;;17.60;6.13;;;;;;;;;;5063132;28;20108;-70
2023/09/24 10:07:03;;;;;;;22.30;5.78;;;;;;;;;;5064838;28;20067;-70
2023/09/24 10:09:29;;;;;;;17.75;5.22;;;;;;;;;;5062004;28;20436;-71
2023/09/24 10:11:56;;;;;;;14.48;5.80;;;;;;;;;;5059689;28;20482;-70
2023/09/24 10:14:42;;;;;;;16.83;5.60;;;;;;;;;;5061134;28;20035;-71
2023/09/24 10:17:21;;;;;;;12.48;5.15;;;;;;;;;;5052708;28;20429;-71
2023/09/24 10:20:08;;;;;;;13.75;4.70;;;;;;;;;;5050472;28;20089;-71
2023/09/24 10:22:35;;;;;;;18.25;5.85;;;;;;;;;;5050517;28;20040;-71
2023/09/24 10:25:34;;;;;;;17.90;5.38;;;;;;;;;;5050512;28;20068;-71
2023/09/24 10:28:03;;;;;;;18.58;5.65;;;;;;;;;;5052173;28;20033;-71
2023/09/24 10:31:02;;;;;;;24.13;5.13;;;;;;;;;;5069688;28;20048;-71
2023/09/24 10:33:53;;;;;;;23.63;5.05;;;;;;;;;;5072953;28;20036;-71
2023/09/24 10:36:30;;;;;;;17.38;5.60;;;;;;;;;;5073780;28;20198;-70
2023/09/24 10:39:13;;;;;;;17.35;5.32;;;;;;;;;;5073656;28;20041;-69
2023/09/24 10:42:11;;;;;;;21.40;5.63;;;;;;;;;;5073973;28;20120;-70
2023/09/24 10:44:39;;;;;;;19.27;5.35;;;;;;;;;;5073404;28;20032;-70
2023/09/24 10:47:30;;;;;;;20.50;4.97;;;;;;;;;;5073605;28;20024;-71
2023/09/24 10:50:03;;;;;;;14.50;4.53;;;;;;;;;;5074045;28;20511;-71
2023/09/24 10:52:59;;;;;;;17.73;6.05;;;;;;;;;;5073382;28;20040;-71
2023/09/24 10:55:31;;;;;;;16.95;4.47;;;;;;;;;;5072926;28;20036;-70
2023/09/24 10:57:58;;;;;;;26.52;6.32;;;;;;;;;;5073787;28;20060;-70
2023/09/24 11:00:26;;;;;;;19.08;5.70;;;;;;;;;;5073583;28;20506;-70
2023/09/24 11:03:04;;;;;;;22.65;6.07;;;;;;;;;;5073273;28;20506;-70
2023/09/24 11:05:40;;;;;;;24.38;5.50;;;;;;;;;;5073272;28;20029;-71
2023/09/24 11:08:07;;;;;;;19.70;5.78;;;;;;;;;;5073006;28;20551;-69
2023/09/24 11:10:33;;;;;;;19.08;5.28;;;;;;;;;;5073340;28;20423;-69
2023/09/24 11:13:03;;;;;;;18.40;4.93;;;;;;;;;;5073139;28;20098;-70
2023/09/24 11:15:34;;;;;;;14.10;4.72;;;;;;;;;;5073307;28;20028;-70
2023/09/24 11:18:00;;;;;;;16.08;4.72;;;;;;;;;;5088355;28;20032;-71
2023/09/24 11:20:28;;;;;;;17.55;5.28;;;;;;;;;;5093124;28;20027;-71
2023/09/24 11:23:06;;;;;;;24.45;6.03;;;;;;;;;;5093094;28;20040;-71
2023/09/24 11:25:32;;;;;;;19.45;5.05;;;;;;;;;;5093431;28;20027;-70
2023/09/24 11:28:03;;;;;;;19.33;4.80;;;;;;;;;;5093528;28;20493;-71
2023/09/24 11:30:45;;;;;;;22.13;4.90;;;;;;;;;;5093353;28;20047;-70
2023/09/24 11:33:20;;;;;;;17.90;5.30;;;;;;;;;;5093311;28;20058;-71
2023/09/24 11:35:47;;;;;;;18.80;4.50;;;;;;;;;;5093450;28;20059;-70
2023/09/24 11:38:14;;;;;;;22.65;5.72;;;;;;;;;;5093211;28;20432;-72
2023/09/24 11:40:41;;;;;;;18.35;4.88;;;;;;;;;;5093062;28;20032;-70
2023/09/24 11:43:15;;;;;;;24.30;5.35;;;;;;;;;;5092629;28;20072;-70
2023/09/24 11:45:53;;;;;;;14.50;4.90;;;;;;;;;;5093037;28;20074;-70
2023/09/24 11:48:24;;;;;;;15.77;5.15;;;;;;;;;;5092870;28;20032;-70
2023/09/24 11:50:56;;;;;;;19.23;5.68;;;;;;;;;;5093146;28;20040;-71
2023/09/24 11:53:24;;;;;;;21.13;5.87;;;;;;;;;;5088519;28;20127;-71
2023/09/24 11:55:52;;;;;;;17.17;4.70;;;;;;;;;;5071360;28;20070;-70
2023/09/24 11:58:18;;;;;;;15.80;5.55;;;;;;;;;;5072670;28;20146;-70
2023/09/24 12:00:44;;;;;;;15.98;5.60;;;;;;;;;;5066504;28;20055;-71
2023/09/24 12:03:12;;;;;;;21.98;4.97;;;;;;;;;;5072422;28;20488;-71
2023/09/24 12:05:38;;;;;;;23.60;5.03;;;;;;;;;;5072265;28;20032;-70
2023/09/24 12:08:06;;;;;;;16.55;5.07;;;;;;;;;;5066875;28;20215;-71
2023/09/24 12:10:33;;;;;;;19.13;5.18;;;;;;;;;;5070650;28;20029;-70
2023/09/24 12:13:04;;;;;;;17.05;4.88;;;;;;;;;;5068932;28;20036;-69
2023/09/24 12:15:30;;;;;;;12.23;4.85;;;;;;;;;;5071571;28;20025;-71
2023/09/24 12:17:57;;;;;;;16.17;4.57;;;;;;;;;;5071204;28;20046;-70
2023/09/24 12:20:23;;;;;;;14.00;4.50;;;;;;;;;;5072102;28;20029;-70
2023/09/24 12:22:49;;;;;;;17.17;4.90;;;;;;;;;;5069624;28;20032;-70
2023/09/24 12:25:15;;;;;;;12.95;4.70;;;;;;;;;;5070798;28;20052;-71
2023/09/24 12:27:41;;;;;;;16.58;4.97;;;;;;;;;;5071522;28;20062;-70
2023/09/24 12:30:11;;;;;;;14.50;5.00;;;;;;;;;;5071565;28;20050;-70
2023/09/24 12:32:40;;;;;;;17.80;4.93;;;;;;;;;;5071777;28;20378;-71
2023/09/24 12:35:12;;;;;;;20.52;5.07;;;;;;;;;;5071731;28;20044;-70
2023/09/24 12:37:40;;;;;;;13.27;4.50;;;;;;;;;;5071432;28;20036;-70
2023/09/24 12:40:08;;;;;;;18.73;4.88;;;;;;;;;;5071696;28;20032;-68
2023/09/24 12:42:36;;;;;;;19.38;5.38;;;;;;;;;;5071128;28;20045;-71
2023/09/24 12:45:02;;;;;;;17.17;4.93;;;;;;;;;;5071686;28;20081;-69
2023/09/24 12:47:32;;;;;;;19.73;5.20;;;;;;;;;;5070351;28;20051;-70
2023/09/24 12:50:00;;;;;;;16.77;4.85;;;;;;;;;;5070129;28;20451;-71
2023/09/24 12:52:31;;;;;;;15.05;4.78;;;;;;;;;;5070453;28;20017;-71
2023/09/24 12:54:57;;;;;;;14.95;5.00;;;;;;;;;;5070466;28;20122;-68
2023/09/24 12:57:22;;;;;;;16.38;4.82;;;;;;;;;;5084443;28;20491;-69
2023/09/24 12:59:48;;;;;;;15.25;4.75;;;;;;;;;;5081721;28;20074;-71
2023/09/24 13:02:14;;;;;;;20.15;4.90;;;;;;;;;;5065577;28;20082;-70
2023/09/24 13:04:40;;;;;;;16.75;4.70;;;;;;;;;;5066672;28;20040;-70
2023/09/24 13:07:06;;;;;;;16.92;5.13;;;;;;;;;;5071772;28;20040;-70
2023/09/24 13:09:32;;;;;;;21.10;5.40;;;;;;;;;;5071389;28;20482;-71
2023/09/24 13:11:58;;;;;;;14.63;4.57;;;;;;;;;;5068607;28;20094;-72
2023/09/24 13:14:24;;;;;;;16.92;5.53;;;;;;;;;;5071468;28;20028;-71
2023/09/24 13:16:52;;;;;;;17.73;5.22;;;;;;;;;;5070991;28;20031;-71
2023/09/24 13:19:18;;;;;;;12.48;4.95;;;;;;;;;;5071040;28;20044;-72
2023/09/24 13:21:44;;;;;;;13.88;4.53;;;;;;;;;;5070745;28;20024;-70
2023/09/24 13:24:10;;;;;;;16.08;5.00;;;;;;;;;;5071342;28;20039;-70
2023/09/24 13:26:36;;;;;;;9.30;4.78;;;;;;;;;;5071561;28;20044;-70
2023/09/24 13:29:03;;;;;;;15.43;4.90;;;;;;;;;;5064563;28;20044;-71
2023/09/24 13:31:29;;;;;;;14.13;5.10;;;;;;;;;;5071012;28;20532;-70
2023/09/24 13:33:55;;;;;;;15.52;4.60;;;;;;;;;;5071155;28;20029;-70
2023/09/24 13:36:22;;;;;;;11.75;4.95;;;;;;;;;;5070074;28;20043;-71
2023/09/24 13:38:49;;;;;;;14.25;4.60;;;;;;;;;;5071222;28;20452;-70
2023/09/24 13:41:15;;;;;;;17.15;4.90;;;;;;;;;;5071048;28;20382;-71
2023/09/24 13:43:41;;;;;;;18.40;4.65;;;;;;;;;;5070612;28;20035;-72
2023/09/24 13:46:06;;;;;;;11.32;4.85;;;;;;;;;;5070358;28;20031;-71
2023/09/24 13:48:32;;;;;;;15.82;4.55;;;;;;;;;;5069765;28;20035;-71
2023/09/24 13:50:58;;;;;;;18.67;4.88;;;;;;;;;;5070774;28;20398;-70
2023/09/24 13:53:24;;;;;;;12.65;4.82;;;;;;;;;;5070940;28;20037;-71
2023/09/24 13:55:51;;;;;;;14.77;4.28;;;;;;;;;;5070286;28;20103;-72
2023/09/24 13:58:17;;;;;;;9.75;5.03;;;;;;;;;;5070981;28;20028;-72
2023/09/24 14:00:51;;;;;;;18.05;5.43;;;;;;;;;;5070262;28;20024;-72
2023/09/24 14:03:21;;;;;;;16.85;5.07;;;;;;;;;;5063328;28;20031;-71
2023/09/24 14:05:47;;;;;;;13.88;4.35;;;;;;;;;;5071180;28;20051;-70
2023/09/24 14:13:46;;;;;;;16.80;4.57;;;;;;;;;;5073750;28;20510;-71
2023/09/24 14:16:13;;;;;;;11.50;4.25;;;;;;;;;;5073700;28;20499;-70
2023/09/24 14:18:39;;;;;;;16.50;4.30;;;;;;;;;;5072549;28;20081;-72
2023/09/24 14:21:10;;;;;;;13.60;4.85;;;;;;;;;;5072766;28;20393;-72
2023/09/24 14:23:35;;;;;;;12.45;4.07;;;;;;;;;;5074265;28;20036;-72
2023/09/24 14:26:02;;;;;;;20.42;4.97;;;;;;;;;;5073353;28;20024;-72
2023/09/24 14:28:28;;;;;;;13.85;4.90;;;;;;;;;;5072999;28;20029;-71
2023/09/24 14:30:53;;;;;;;11.88;4.28;;;;;;;;;;5074025;28;20021;-73
2023/09/24 14:33:19;;;;;;;19.35;5.28;;;;;;;;;;5071597;28;20105;-72
2023/09/24 14:35:45;;;;;;;9.30;3.95;;;;;;;;;;5073279;28;20535;-71
2023/09/24 14:38:11;;;;;;;15.90;4.40;;;;;;;;;;5073956;28;20040;-72
2023/09/24 14:40:38;;;;;;;14.65;4.57;;;;;;;;;;5073839;28;20059;-71
2023/09/24 14:43:05;;;;;;;16.20;4.53;;;;;;;;;;5073003;28;20037;-72
2023/09/24 14:45:31;;;;;;;12.23;4.60;;;;;;;;;;5073523;28;20498;-73